sensor_id;sensor_type;location;lat;lon;timestamp;temperature;humidity
67157;SHT31;54086;50.126;8.710;2023-04-03T00:00:58;5.31;76.30
67157;SHT31;54086;50.126;8.710;2023-04-03T00:03:23;5.17;76.21
67157;SHT31;54086;50.126;8.710;2023-04-03T00:05:49;5.34;76.30
67157;SHT31;54086;50.126;8.710;2023-04-03T00:08:14;5.35;75.79
67157;SHT31;54086;50.126;8.710;2023-04-03T00:10:40;5.38;75.48
67157;SHT31;54086;50.126;8.710;2023-04-03T00:13:06;5.45;75.43
67157;SHT31;54086;50.126;8.710;2023-04-03T00:15:32;5.42;75.81
67157;SHT31;54086;50.126;8.710;2023-04-03T00:17:57;5.50;75.66
67157;SHT31;54086;50.126;8.710;2023-04-03T00:20:23;5.46;75.90
67157;SHT31;54086;50.126;8.710;2023-04-03T00:22:49;5.48;76.16
67157;SHT31;54086;50.126;8.710;2023-04-03T00:25:14;5.48;75.79
67157;SHT31;54086;50.126;8.710;2023-04-03T00:27:40;5.42;75.75
67157;SHT31;54086;50.126;8.710;2023-04-03T00:30:08;5.29;76.28
67157;SHT31;54086;50.126;8.710;2023-04-03T00:32:34;5.34;76.33
67157;SHT31;54086;50.126;8.710;2023-04-03T00:35:00;5.39;76.28
67157;SHT31;54086;50.126;8.710;2023-04-03T00:37:25;5.38;76.19
67157;SHT31;54086;50.126;8.710;2023-04-03T00:39:51;5.41;76.34
67157;SHT31;54086;50.126;8.710;2023-04-03T00:42:16;5.32;76.29
67157;SHT31;54086;50.126;8.710;2023-04-03T00:47:10;5.31;76.85
67157;SHT31;54086;50.126;8.710;2023-04-03T00:49:37;5.32;76.73
67157;SHT31;54086;50.126;8.710;2023-04-03T00:52:05;5.32;76.84
67157;SHT31;54086;50.126;8.710;2023-04-03T00:54:32;5.29;77.25
67157;SHT31;54086;50.126;8.710;2023-04-03T00:57:00;5.32;76.72
67157;SHT31;54086;50.126;8.710;2023-04-03T00:59:29;5.32;76.44
67157;SHT31;54086;50.126;8.710;2023-04-03T01:01:56;5.34;76.43
67157;SHT31;54086;50.126;8.710;2023-04-03T01:07:04;5.32;76.64
67157;SHT31;54086;50.126;8.710;2023-04-03T01:09:31;5.35;76.56
67157;SHT31;54086;50.126;8.710;2023-04-03T01:12:33;5.38;76.55
67157;SHT31;54086;50.126;8.710;2023-04-03T01:15:02;5.28;76.50
67157;SHT31;54086;50.126;8.710;2023-04-03T01:17:38;5.42;76.26
67157;SHT31;54086;50.126;8.710;2023-04-03T01:26:04;5.43;76.13
67157;SHT31;54086;50.126;8.710;2023-04-03T01:28:33;5.18;76.87
67157;SHT31;54086;50.126;8.710;2023-04-03T01:31:32;5.29;76.73
67157;SHT31;54086;50.126;8.710;2023-04-03T01:33:59;5.29;76.65
67157;SHT31;54086;50.126;8.710;2023-04-03T01:36:27;5.34;76.51
67157;SHT31;54086;50.126;8.710;2023-04-03T01:38:54;5.29;76.06
67157;SHT31;54086;50.126;8.710;2023-04-03T01:41:20;5.22;76.77
67157;SHT31;54086;50.126;8.710;2023-04-03T01:43:46;5.25;76.57
67157;SHT31;54086;50.126;8.710;2023-04-03T01:46:12;5.27;76.42
67157;SHT31;54086;50.126;8.710;2023-04-03T01:48:38;5.27;76.56
67157;SHT31;54086;50.126;8.710;2023-04-03T01:51:04;5.25;76.51
67157;SHT31;54086;50.126;8.710;2023-04-03T01:53:29;5.32;76.40
67157;SHT31;54086;50.126;8.710;2023-04-03T01:55:55;5.39;76.10
67157;SHT31;54086;50.126;8.710;2023-04-03T01:58:20;5.46;75.96
67157;SHT31;54086;50.126;8.710;2023-04-03T02:00:46;5.38;76.12
67157;SHT31;54086;50.126;8.710;2023-04-03T02:03:11;5.49;76.35
67157;SHT31;54086;50.126;8.710;2023-04-03T02:05:37;5.36;76.43
67157;SHT31;54086;50.126;8.710;2023-04-03T02:08:03;5.48;76.74
67157;SHT31;54086;50.126;8.710;2023-04-03T02:10:28;5.55;76.67
67157;SHT31;54086;50.126;8.710;2023-04-03T02:12:54;5.55;76.60
67157;SHT31;54086;50.126;8.710;2023-04-03T02:15:19;5.60;76.58
67157;SHT31;54086;50.126;8.710;2023-04-03T02:17:45;5.62;76.64
67157;SHT31;54086;50.126;8.710;2023-04-03T02:20:11;5.59;76.86
67157;SHT31;54086;50.126;8.710;2023-04-03T02:22:36;5.59;76.67
67157;SHT31;54086;50.126;8.710;2023-04-03T02:25:02;5.42;76.80
67157;SHT31;54086;50.126;8.710;2023-04-03T02:27:27;5.45;77.09
67157;SHT31;54086;50.126;8.710;2023-04-03T02:29:53;5.43;77.21
67157;SHT31;54086;50.126;8.710;2023-04-03T02:32:18;5.34;77.60
67157;SHT31;54086;50.126;8.710;2023-04-03T02:34:43;5.45;77.81
67157;SHT31;54086;50.126;8.710;2023-04-03T02:37:09;5.32;78.28
67157;SHT31;54086;50.126;8.710;2023-04-03T02:39:34;5.27;78.03
67157;SHT31;54086;50.126;8.710;2023-04-03T02:42:00;5.24;78.27
67157;SHT31;54086;50.126;8.710;2023-04-03T02:44:25;5.20;78.43
67157;SHT31;54086;50.126;8.710;2023-04-03T02:46:51;5.21;78.53
67157;SHT31;54086;50.126;8.710;2023-04-03T02:49:16;5.20;78.52
67157;SHT31;54086;50.126;8.710;2023-04-03T02:51:42;5.14;78.69
67157;SHT31;54086;50.126;8.710;2023-04-03T02:54:08;5.15;79.21
67157;SHT31;54086;50.126;8.710;2023-04-03T02:56:33;5.20;79.12
67157;SHT31;54086;50.126;8.710;2023-04-03T02:58:59;5.17;79.38
67157;SHT31;54086;50.126;8.710;2023-04-03T03:01:24;5.05;79.87
67157;SHT31;54086;50.126;8.710;2023-04-03T03:03:52;5.07;79.66
67157;SHT31;54086;50.126;8.710;2023-04-03T03:06:17;4.88;80.21
67157;SHT31;54086;50.126;8.710;2023-04-03T03:08:43;4.95;79.51
67157;SHT31;54086;50.126;8.710;2023-04-03T03:11:09;4.97;79.02
67157;SHT31;54086;50.126;8.710;2023-04-03T03:13:35;4.91;79.13
67157;SHT31;54086;50.126;8.710;2023-04-03T03:16:01;4.91;79.47
67157;SHT31;54086;50.126;8.710;2023-04-03T03:18:27;4.92;79.40
67157;SHT31;54086;50.126;8.710;2023-04-03T03:20:54;4.95;79.21
67157;SHT31;54086;50.126;8.710;2023-04-03T03:23:21;5.00;79.03
67157;SHT31;54086;50.126;8.710;2023-04-03T03:25:47;5.02;78.63
67157;SHT31;54086;50.126;8.710;2023-04-03T03:28:12;4.97;78.60
67157;SHT31;54086;50.126;8.710;2023-04-03T03:30:38;4.84;78.51
67157;SHT31;54086;50.126;8.710;2023-04-03T03:33:03;4.81;78.07
67157;SHT31;54086;50.126;8.710;2023-04-03T03:35:29;4.73;78.32
67157;SHT31;54086;50.126;8.710;2023-04-03T03:37:54;4.66;78.42
67157;SHT31;54086;50.126;8.710;2023-04-03T03:40:20;4.73;77.74
67157;SHT31;54086;50.126;8.710;2023-04-03T03:42:45;4.71;77.31
67157;SHT31;54086;50.126;8.710;2023-04-03T03:45:11;4.71;77.30
67157;SHT31;54086;50.126;8.710;2023-04-03T03:47:36;4.73;76.68
67157;SHT31;54086;50.126;8.710;2023-04-03T03:50:02;4.61;77.11
67157;SHT31;54086;50.126;8.710;2023-04-03T03:52:28;4.60;76.92
67157;SHT31;54086;50.126;8.710;2023-04-03T03:54:57;4.57;77.02
67157;SHT31;54086;50.126;8.710;2023-04-03T03:57:22;4.57;77.06
67157;SHT31;54086;50.126;8.710;2023-04-03T03:59:48;4.50;76.77
67157;SHT31;54086;50.126;8.710;2023-04-03T04:02:14;4.49;76.85
67157;SHT31;54086;50.126;8.710;2023-04-03T04:04:39;4.48;76.64
67157;SHT31;54086;50.126;8.710;2023-04-03T04:07:05;4.40;77.12
67157;SHT31;54086;50.126;8.710;2023-04-03T04:09:30;4.39;76.87
67157;SHT31;54086;50.126;8.710;2023-04-03T04:11:55;4.45;77.14
67157;SHT31;54086;50.126;8.710;2023-04-03T04:14:21;4.40;77.11
67157;SHT31;54086;50.126;8.710;2023-04-03T04:16:47;4.40;77.16
67157;SHT31;54086;50.126;8.710;2023-04-03T04:19:13;4.38;76.76
67157;SHT31;54086;50.126;8.710;2023-04-03T04:21:38;4.25;77.34
67157;SHT31;54086;50.126;8.710;2023-04-03T04:24:04;4.26;77.58
67157;SHT31;54086;50.126;8.710;2023-04-03T04:26:30;4.25;77.35
67157;SHT31;54086;50.126;8.710;2023-04-03T04:28:55;4.36;77.26
67157;SHT31;54086;50.126;8.710;2023-04-03T04:31:21;4.13;77.11
67157;SHT31;54086;50.126;8.710;2023-04-03T04:33:46;3.95;77.57
67157;SHT31;54086;50.126;8.710;2023-04-03T04:36:11;4.05;77.57
67157;SHT31;54086;50.126;8.710;2023-04-03T04:38:37;3.92;77.73
67157;SHT31;54086;50.126;8.710;2023-04-03T04:41:03;3.94;77.83
67157;SHT31;54086;50.126;8.710;2023-04-03T04:43:29;3.94;77.54
67157;SHT31;54086;50.126;8.710;2023-04-03T04:46:10;3.84;77.81
67157;SHT31;54086;50.126;8.710;2023-04-03T04:48:38;3.75;78.27
67157;SHT31;54086;50.126;8.710;2023-04-03T04:51:04;3.80;78.47
67157;SHT31;54086;50.126;8.710;2023-04-03T04:53:29;3.66;78.34
67157;SHT31;54086;50.126;8.710;2023-04-03T04:55:55;3.81;78.18
67157;SHT31;54086;50.126;8.710;2023-04-03T04:58:21;3.80;78.21
67157;SHT31;54086;50.126;8.710;2023-04-03T05:00:46;3.66;78.58
67157;SHT31;54086;50.126;8.710;2023-04-03T05:03:12;3.69;78.43
67157;SHT31;54086;50.126;8.710;2023-04-03T05:05:38;3.71;78.15
67157;SHT31;54086;50.126;8.710;2023-04-03T05:08:04;3.63;78.33
67157;SHT31;54086;50.126;8.710;2023-04-03T05:10:29;3.63;78.67
67157;SHT31;54086;50.126;8.710;2023-04-03T05:12:55;3.60;78.53
67157;SHT31;54086;50.126;8.710;2023-04-03T05:15:21;3.51;78.67
67157;SHT31;54086;50.126;8.710;2023-04-03T05:17:46;3.67;78.58
67157;SHT31;54086;50.126;8.710;2023-04-03T05:20:12;3.50;78.88
67157;SHT31;54086;50.126;8.710;2023-04-03T05:22:37;3.56;79.02
67157;SHT31;54086;50.126;8.710;2023-04-03T05:25:03;3.59;79.01
67157;SHT31;54086;50.126;8.710;2023-04-03T05:27:29;3.51;78.68
67157;SHT31;54086;50.126;8.710;2023-04-03T05:29:55;3.50;79.18
67157;SHT31;54086;50.126;8.710;2023-04-03T05:32:22;3.57;79.20
67157;SHT31;54086;50.126;8.710;2023-04-03T05:34:47;3.54;78.80
67157;SHT31;54086;50.126;8.710;2023-04-03T05:37:13;3.53;78.87
67157;SHT31;54086;50.126;8.710;2023-04-03T05:39:38;3.54;79.19
67157;SHT31;54086;50.126;8.710;2023-04-03T05:42:06;3.57;79.10
67157;SHT31;54086;50.126;8.710;2023-04-03T05:44:32;3.51;79.30
67157;SHT31;54086;50.126;8.710;2023-04-03T05:46:58;3.59;78.98
67157;SHT31;54086;50.126;8.710;2023-04-03T05:49:23;3.53;79.16
67157;SHT31;54086;50.126;8.710;2023-04-03T05:51:49;3.47;79.40
67157;SHT31;54086;50.126;8.710;2023-04-03T05:54:25;3.31;79.41
67157;SHT31;54086;50.126;8.710;2023-04-03T05:56:51;3.40;79.69
67157;SHT31;54086;50.126;8.710;2023-04-03T05:59:17;3.43;79.28
67157;SHT31;54086;50.126;8.710;2023-04-03T06:01:43;3.49;79.39
67157;SHT31;54086;50.126;8.710;2023-04-03T06:04:08;3.46;79.52
67157;SHT31;54086;50.126;8.710;2023-04-03T06:06:56;3.43;79.51
67157;SHT31;54086;50.126;8.710;2023-04-03T06:09:25;3.39;79.59
67157;SHT31;54086;50.126;8.710;2023-04-03T06:11:50;3.41;79.66
67157;SHT31;54086;50.126;8.710;2023-04-03T06:14:17;3.19;79.52
67157;SHT31;54086;50.126;8.710;2023-04-03T06:16:42;3.33;79.66
67157;SHT31;54086;50.126;8.710;2023-04-03T06:19:09;3.40;79.89
67157;SHT31;54086;50.126;8.710;2023-04-03T06:21:34;3.50;79.56
67157;SHT31;54086;50.126;8.710;2023-04-03T06:24:01;3.43;79.31
67157;SHT31;54086;50.126;8.710;2023-04-03T06:26:27;3.36;78.92
67157;SHT31;54086;50.126;8.710;2023-04-03T06:28:53;3.59;79.64
67157;SHT31;54086;50.126;8.710;2023-04-03T06:31:18;3.63;79.21
67157;SHT31;54086;50.126;8.710;2023-04-03T06:33:45;3.71;78.67
67157;SHT31;54086;50.126;8.710;2023-04-03T06:36:11;3.82;78.39
67157;SHT31;54086;50.126;8.710;2023-04-03T06:38:37;3.77;77.89
67157;SHT31;54086;50.126;8.710;2023-04-03T06:41:03;3.78;78.18
67157;SHT31;54086;50.126;8.710;2023-04-03T06:43:29;3.74;77.96
67157;SHT31;54086;50.126;8.710;2023-04-03T06:45:56;3.64;78.35
67157;SHT31;54086;50.126;8.710;2023-04-03T06:48:22;3.71;78.45
67157;SHT31;54086;50.126;8.710;2023-04-03T06:50:48;3.87;78.05
67157;SHT31;54086;50.126;8.710;2023-04-03T06:53:13;3.80;78.17
67157;SHT31;54086;50.126;8.710;2023-04-03T06:55:38;3.85;78.24
67157;SHT31;54086;50.126;8.710;2023-04-03T06:58:04;3.84;78.12
67157;SHT31;54086;50.126;8.710;2023-04-03T07:00:30;3.99;77.84
67157;SHT31;54086;50.126;8.710;2023-04-03T07:02:56;4.30;77.24
67157;SHT31;54086;50.126;8.710;2023-04-03T07:05:23;4.12;77.03
67157;SHT31;54086;50.126;8.710;2023-04-03T07:07:50;4.08;76.99
67157;SHT31;54086;50.126;8.710;2023-04-03T07:10:20;4.09;77.12
67157;SHT31;54086;50.126;8.710;2023-04-03T07:13:00;4.21;77.03
67157;SHT31;54086;50.126;8.710;2023-04-03T07:15:29;4.40;77.24
67157;SHT31;54086;50.126;8.710;2023-04-03T07:17:55;4.48;76.42
67157;SHT31;54086;50.126;8.710;2023-04-03T07:20:27;4.49;76.70
67157;SHT31;54086;50.126;8.710;2023-04-03T07:22:53;4.52;77.05
67157;SHT31;54086;50.126;8.710;2023-04-03T07:25:24;4.61;76.86
67157;SHT31;54086;50.126;8.710;2023-04-03T07:27:50;4.64;76.68
67157;SHT31;54086;50.126;8.710;2023-04-03T07:30:23;4.88;75.56
67157;SHT31;54086;50.126;8.710;2023-04-03T07:32:48;4.98;75.57
67157;SHT31;54086;50.126;8.710;2023-04-03T07:35:25;4.81;74.86
67157;SHT31;54086;50.126;8.710;2023-04-03T07:37:52;4.67;74.32
67157;SHT31;54086;50.126;8.710;2023-04-03T07:40:19;4.97;74.51
67157;SHT31;54086;50.126;8.710;2023-04-03T07:42:50;5.08;74.02
67157;SHT31;54086;50.126;8.710;2023-04-03T07:45:17;5.08;73.44
67157;SHT31;54086;50.126;8.710;2023-04-03T07:47:44;5.07;73.44
67157;SHT31;54086;50.126;8.710;2023-04-03T07:50:11;5.05;73.04
67157;SHT31;54086;50.126;8.710;2023-04-03T07:52:37;5.27;72.55
67157;SHT31;54086;50.126;8.710;2023-04-03T07:55:03;5.24;71.85
67157;SHT31;54086;50.126;8.710;2023-04-03T07:57:30;5.22;72.04
67157;SHT31;54086;50.126;8.710;2023-04-03T08:00:02;5.39;72.02
67157;SHT31;54086;50.126;8.710;2023-04-03T08:02:29;5.34;71.07
67157;SHT31;54086;50.126;8.710;2023-04-03T08:05:11;5.66;71.34
67157;SHT31;54086;50.126;8.710;2023-04-03T08:07:57;5.67;70.19
67157;SHT31;54086;50.126;8.710;2023-04-03T08:10:29;6.06;69.58
67157;SHT31;54086;50.126;8.710;2023-04-03T08:13:02;6.71;68.50
67157;SHT31;54086;50.126;8.710;2023-04-03T08:15:49;7.64;65.95
67157;SHT31;54086;50.126;8.710;2023-04-03T08:18:17;7.72;63.57
67157;SHT31;54086;50.126;8.710;2023-04-03T08:20:46;8.23;62.78
67157;SHT31;54086;50.126;8.710;2023-04-03T08:23:12;8.91;61.00
67157;SHT31;54086;50.126;8.710;2023-04-03T08:25:43;8.19;61.38
67157;SHT31;54086;50.126;8.710;2023-04-03T08:28:11;8.44;61.02
67157;SHT31;54086;50.126;8.710;2023-04-03T08:30:40;8.46;60.44
67157;SHT31;54086;50.126;8.710;2023-04-03T08:33:06;9.04;59.51
67157;SHT31;54086;50.126;8.710;2023-04-03T08:35:33;9.08;59.30
67157;SHT31;54086;50.126;8.710;2023-04-03T08:38:04;9.44;58.26
67157;SHT31;54086;50.126;8.710;2023-04-03T08:40:29;8.12;60.56
67157;SHT31;54086;50.126;8.710;2023-04-03T08:43:41;8.97;59.37
67157;SHT31;54086;50.126;8.710;2023-04-03T08:46:05;8.50;59.81
67157;SHT31;54086;50.126;8.710;2023-04-03T08:48:51;9.40;57.91
67157;SHT31;54086;50.126;8.710;2023-04-03T08:51:21;9.74;56.65
67157;SHT31;54086;50.126;8.710;2023-04-03T08:54:00;9.83;56.53
67157;SHT31;54086;50.126;8.710;2023-04-03T08:56:28;9.77;56.89
67157;SHT31;54086;50.126;8.710;2023-04-03T08:59:00;9.39;56.86
67157;SHT31;54086;50.126;8.710;2023-04-03T09:01:43;9.47;56.40
67157;SHT31;54086;50.126;8.710;2023-04-03T09:04:12;9.53;56.96
67157;SHT31;54086;50.126;8.710;2023-04-03T09:06:42;9.49;56.75
67157;SHT31;54086;50.126;8.710;2023-04-03T09:09:43;9.95;56.71
67157;SHT31;54086;50.126;8.710;2023-04-03T09:12:21;9.93;54.87
67157;SHT31;54086;50.126;8.710;2023-04-03T09:23:20;9.95;55.59
67157;SHT31;54086;50.126;8.710;2023-04-03T09:25:53;9.51;55.94
67157;SHT31;54086;50.126;8.710;2023-04-03T09:28:21;8.25;58.23
67157;SHT31;54086;50.126;8.710;2023-04-03T09:30:47;8.56;58.46
67157;SHT31;54086;50.126;8.710;2023-04-03T09:33:13;8.36;58.45
67157;SHT31;54086;50.126;8.710;2023-04-03T09:35:40;8.84;57.62
67157;SHT31;54086;50.126;8.710;2023-04-03T09:40:38;8.77;56.87
67157;SHT31;54086;50.126;8.710;2023-04-03T09:43:30;8.44;58.60
67157;SHT31;54086;50.126;8.710;2023-04-03T09:46:33;8.12;58.94
67157;SHT31;54086;50.126;8.710;2023-04-03T09:49:04;8.28;58.97
67157;SHT31;54086;50.126;8.710;2023-04-03T09:51:30;8.12;59.73
67157;SHT31;54086;50.126;8.710;2023-04-03T09:53:59;8.28;59.13
67157;SHT31;54086;50.126;8.710;2023-04-03T09:56:28;8.14;58.81
67157;SHT31;54086;50.126;8.710;2023-04-03T10:06:34;9.80;55.36
67157;SHT31;54086;50.126;8.710;2023-04-03T10:09:17;8.98;56.80
67157;SHT31;54086;50.126;8.710;2023-04-03T10:12:03;9.25;56.62
67157;SHT31;54086;50.126;8.710;2023-04-03T10:14:33;9.71;55.02
67157;SHT31;54086;50.126;8.710;2023-04-03T10:17:06;9.77;55.04
67157;SHT31;54086;50.126;8.710;2023-04-03T10:25:41;10.12;53.76
67157;SHT31;54086;50.126;8.710;2023-04-03T10:28:55;10.46;52.59
67157;SHT31;54086;50.126;8.710;2023-04-03T10:34:25;9.63;55.71
67157;SHT31;54086;50.126;8.710;2023-04-03T10:43:04;11.90;50.19
67157;SHT31;54086;50.126;8.710;2023-04-03T10:45:49;11.14;50.12
67157;SHT31;54086;50.126;8.710;2023-04-03T10:51:21;10.46;51.68
67157;SHT31;54086;50.126;8.710;2023-04-03T10:54:46;11.96;48.91
67157;SHT31;54086;50.126;8.710;2023-04-03T10:57:09;11.48;49.13
67157;SHT31;54086;50.126;8.710;2023-04-03T10:59:47;10.41;50.96
67157;SHT31;54086;50.126;8.710;2023-04-03T11:02:28;10.50;49.89
67157;SHT31;54086;50.126;8.710;2023-04-03T11:08:16;12.10;48.19
67157;SHT31;54086;50.126;8.710;2023-04-03T11:10:47;11.72;47.06
67157;SHT31;54086;50.126;8.710;2023-04-03T11:13:24;12.20;47.26
67157;SHT31;54086;50.126;8.710;2023-04-03T11:15:53;11.42;47.03
67157;SHT31;54086;50.126;8.710;2023-04-03T11:18:45;11.83;45.38
67157;SHT31;54086;50.126;8.710;2023-04-03T11:21:39;10.41;46.81
67157;SHT31;54086;50.126;8.710;2023-04-03T11:24:20;10.77;47.29
67157;SHT31;54086;50.126;8.710;2023-04-03T11:26:51;11.51;45.56
67157;SHT31;54086;50.126;8.710;2023-04-03T11:29:23;11.74;44.60
67157;SHT31;54086;50.126;8.710;2023-04-03T11:32:01;11.79;45.44
67157;SHT31;54086;50.126;8.710;2023-04-03T11:34:39;11.83;44.97
67157;SHT31;54086;50.126;8.710;2023-04-03T11:37:34;11.27;44.60
67157;SHT31;54086;50.126;8.710;2023-04-03T11:42:42;12.05;44.17
67157;SHT31;54086;50.126;8.710;2023-04-03T11:50:47;11.01;44.80
67157;SHT31;54086;50.126;8.710;2023-04-03T11:58:34;12.27;43.12
67157;SHT31;54086;50.126;8.710;2023-04-03T12:01:06;12.33;44.14
67157;SHT31;54086;50.126;8.710;2023-04-03T12:04:05;11.82;45.10
67157;SHT31;54086;50.126;8.710;2023-04-03T12:08:57;12.85;42.21
67157;SHT31;54086;50.126;8.710;2023-04-03T12:11:31;11.99;43.07
67157;SHT31;54086;50.126;8.710;2023-04-03T12:26:51;12.08;43.90
67157;SHT31;54086;50.126;8.710;2023-04-03T12:35:23;12.69;43.39
67157;SHT31;54086;50.126;8.710;2023-04-03T12:43:35;13.25;41.37
67157;SHT31;54086;50.126;8.710;2023-04-03T12:51:19;12.51;42.39
67157;SHT31;54086;50.126;8.710;2023-04-03T12:53:50;12.17;42.48
67157;SHT31;54086;50.126;8.710;2023-04-03T12:56:30;11.90;43.78
67157;SHT31;54086;50.126;8.710;2023-04-03T12:59:23;10.75;44.25
67157;SHT31;54086;50.126;8.710;2023-04-03T13:02:00;11.58;43.41
67157;SHT31;54086;50.126;8.710;2023-04-03T13:04:31;12.20;42.58
67157;SHT31;54086;50.126;8.710;2023-04-03T13:09:27;12.85;40.59
67157;SHT31;54086;50.126;8.710;2023-04-03T13:12:13;13.11;40.28
67157;SHT31;54086;50.126;8.710;2023-04-03T13:14:39;12.26;41.15
67157;SHT31;54086;50.126;8.710;2023-04-03T13:19:34;13.43;41.04
67157;SHT31;54086;50.126;8.710;2023-04-03T13:22:04;13.78;40.45
67157;SHT31;54086;50.126;8.710;2023-04-03T13:24:33;12.40;42.24
67157;SHT31;54086;50.126;8.710;2023-04-03T13:27:01;12.95;41.30
67157;SHT31;54086;50.126;8.710;2023-04-03T13:29:30;13.28;41.10
67157;SHT31;54086;50.126;8.710;2023-04-03T13:31:57;13.04;40.06
67157;SHT31;54086;50.126;8.710;2023-04-03T13:34:25;13.50;40.98
67157;SHT31;54086;50.126;8.710;2023-04-03T13:41:49;13.23;40.70
67157;SHT31;54086;50.126;8.710;2023-04-03T13:46:52;12.37;41.96
67157;SHT31;54086;50.126;8.710;2023-04-03T13:51:44;13.06;40.10
67157;SHT31;54086;50.126;8.710;2023-04-03T13:54:19;13.83;38.92
67157;SHT31;54086;50.126;8.710;2023-04-03T13:56:44;12.73;41.04
67157;SHT31;54086;50.126;8.710;2023-04-03T14:04:19;13.86;38.92
67157;SHT31;54086;50.126;8.710;2023-04-03T14:06:46;14.13;38.90
67157;SHT31;54086;50.126;8.710;2023-04-03T14:09:12;14.45;39.12
67157;SHT31;54086;50.126;8.710;2023-04-03T14:11:39;12.80;40.23
67157;SHT31;54086;50.126;8.710;2023-04-03T14:14:12;13.67;39.76
67157;SHT31;54086;50.126;8.710;2023-04-03T14:16:40;14.08;38.75
67157;SHT31;54086;50.126;8.710;2023-04-03T14:19:06;14.04;39.44
67157;SHT31;54086;50.126;8.710;2023-04-03T14:21:32;14.24;37.95
67157;SHT31;54086;50.126;8.710;2023-04-03T14:23:58;13.71;38.41
67157;SHT31;54086;50.126;8.710;2023-04-03T14:26:24;13.86;39.54
67157;SHT31;54086;50.126;8.710;2023-04-03T14:28:53;14.38;38.14
67157;SHT31;54086;50.126;8.710;2023-04-03T14:31:20;13.30;39.21
67157;SHT31;54086;50.126;8.710;2023-04-03T14:33:46;13.42;38.60
67157;SHT31;54086;50.126;8.710;2023-04-03T14:36:21;14.49;37.71
67157;SHT31;54086;50.126;8.710;2023-04-03T14:38:48;13.76;37.77
67157;SHT31;54086;50.126;8.710;2023-04-03T14:41:16;13.40;39.25
67157;SHT31;54086;50.126;8.710;2023-04-03T14:43:43;14.03;38.65
67157;SHT31;54086;50.126;8.710;2023-04-03T14:46:16;13.73;40.17
67157;SHT31;54086;50.126;8.710;2023-04-03T14:48:42;13.83;39.67
67157;SHT31;54086;50.126;8.710;2023-04-03T14:51:11;13.87;40.20
67157;SHT31;54086;50.126;8.710;2023-04-03T14:53:37;12.17;41.90
67157;SHT31;54086;50.126;8.710;2023-04-03T14:56:10;11.96;42.19
67157;SHT31;54086;50.126;8.710;2023-04-03T14:58:36;12.68;41.67
67157;SHT31;54086;50.126;8.710;2023-04-03T15:01:02;12.34;41.92
67157;SHT31;54086;50.126;8.710;2023-04-03T15:03:27;12.44;42.45
67157;SHT31;54086;50.126;8.710;2023-04-03T15:05:53;11.86;41.66
67157;SHT31;54086;50.126;8.710;2023-04-03T15:08:24;12.67;40.38
67157;SHT31;54086;50.126;8.710;2023-04-03T15:10:51;12.19;41.22
67157;SHT31;54086;50.126;8.710;2023-04-03T15:13:21;13.15;40.25
67157;SHT31;54086;50.126;8.710;2023-04-03T15:15:49;13.45;39.40
67157;SHT31;54086;50.126;8.710;2023-04-03T15:18:22;13.47;39.92
67157;SHT31;54086;50.126;8.710;2023-04-03T15:20:48;12.81;40.47
67157;SHT31;54086;50.126;8.710;2023-04-03T15:23:15;12.44;41.02
67157;SHT31;54086;50.126;8.710;2023-04-03T15:25:46;12.48;39.71
67157;SHT31;54086;50.126;8.710;2023-04-03T15:28:23;11.68;41.74
67157;SHT31;54086;50.126;8.710;2023-04-03T15:30:50;11.74;42.02
67157;SHT31;54086;50.126;8.710;2023-04-03T15:33:16;11.10;43.22
67157;SHT31;54086;50.126;8.710;2023-04-03T15:35:42;10.86;43.77
67157;SHT31;54086;50.126;8.710;2023-04-03T15:38:07;11.47;43.36
67157;SHT31;54086;50.126;8.710;2023-04-03T15:40:33;10.86;43.69
67157;SHT31;54086;50.126;8.710;2023-04-03T15:42:58;10.62;43.97
67157;SHT31;54086;50.126;8.710;2023-04-03T15:45:24;9.63;44.91
67157;SHT31;54086;50.126;8.710;2023-04-03T15:47:50;9.35;46.68
67157;SHT31;54086;50.126;8.710;2023-04-03T15:50:15;9.32;46.98
67157;SHT31;54086;50.126;8.710;2023-04-03T15:52:41;9.46;47.21
67157;SHT31;54086;50.126;8.710;2023-04-03T15:55:06;9.54;47.34
67157;SHT31;54086;50.126;8.710;2023-04-03T15:57:32;9.49;47.66
67157;SHT31;54086;50.126;8.710;2023-04-03T15:59:57;9.42;47.47
67157;SHT31;54086;50.126;8.710;2023-04-03T16:02:23;9.38;47.09
67157;SHT31;54086;50.126;8.710;2023-04-03T16:04:49;9.53;46.43
67157;SHT31;54086;50.126;8.710;2023-04-03T16:07:14;9.18;47.50
67157;SHT31;54086;50.126;8.710;2023-04-03T16:09:40;9.07;47.21
67157;SHT31;54086;50.126;8.710;2023-04-03T16:12:05;8.75;47.52
67157;SHT31;54086;50.126;8.710;2023-04-03T16:14:30;8.68;47.63
67157;SHT31;54086;50.126;8.710;2023-04-03T16:16:57;8.93;48.20
67157;SHT31;54086;50.126;8.710;2023-04-03T16:19:23;9.04;47.84
67157;SHT31;54086;50.126;8.710;2023-04-03T16:21:48;8.93;46.83
67157;SHT31;54086;50.126;8.710;2023-04-03T16:24:14;9.05;46.84
67157;SHT31;54086;50.126;8.710;2023-04-03T16:26:39;8.75;47.22
67157;SHT31;54086;50.126;8.710;2023-04-03T16:29:05;8.56;47.88
67157;SHT31;54086;50.126;8.710;2023-04-03T16:31:32;8.72;48.10
67157;SHT31;54086;50.126;8.710;2023-04-03T16:33:57;8.49;48.04
67157;SHT31;54086;50.126;8.710;2023-04-03T16:36:24;8.43;47.84
67157;SHT31;54086;50.126;8.710;2023-04-03T16:38:49;8.44;48.37
67157;SHT31;54086;50.126;8.710;2023-04-03T16:41:15;8.30;48.42
67157;SHT31;54086;50.126;8.710;2023-04-03T16:43:40;8.17;48.53
67157;SHT31;54086;50.126;8.710;2023-04-03T16:46:05;8.33;49.19
67157;SHT31;54086;50.126;8.710;2023-04-03T16:48:31;8.33;48.69
67157;SHT31;54086;50.126;8.710;2023-04-03T16:50:57;8.16;48.70
67157;SHT31;54086;50.126;8.710;2023-04-03T16:53:23;8.28;49.16
67157;SHT31;54086;50.126;8.710;2023-04-03T16:55:50;8.26;49.21
67157;SHT31;54086;50.126;8.710;2023-04-03T16:58:15;8.16;49.78
67157;SHT31;54086;50.126;8.710;2023-04-03T17:00:42;8.20;49.96
67157;SHT31;54086;50.126;8.710;2023-04-03T17:03:07;8.09;49.99
67157;SHT31;54086;50.126;8.710;2023-04-03T17:05:33;8.06;49.77
67157;SHT31;54086;50.126;8.710;2023-04-03T17:07:58;7.77;49.99
67157;SHT31;54086;50.126;8.710;2023-04-03T17:10:25;7.81;50.50
67157;SHT31;54086;50.126;8.710;2023-04-03T17:12:50;7.69;50.95
67157;SHT31;54086;50.126;8.710;2023-04-03T17:15:16;7.81;51.02
67157;SHT31;54086;50.126;8.710;2023-04-03T17:17:41;7.69;51.19
67157;SHT31;54086;50.126;8.710;2023-04-03T17:20:07;7.81;51.44
67157;SHT31;54086;50.126;8.710;2023-04-03T17:22:32;7.79;51.08
67157;SHT31;54086;50.126;8.710;2023-04-03T17:24:58;7.72;51.35
67157;SHT31;54086;50.126;8.710;2023-04-03T17:27:24;7.54;51.52
67157;SHT31;54086;50.126;8.710;2023-04-03T17:29:49;7.35;51.70
67157;SHT31;54086;50.126;8.710;2023-04-03T17:32:15;7.44;51.45
67157;SHT31;54086;50.126;8.710;2023-04-03T17:34:40;7.32;51.83
67157;SHT31;54086;50.126;8.710;2023-04-03T17:37:06;7.37;52.08
67157;SHT31;54086;50.126;8.710;2023-04-03T17:39:32;7.17;52.36
67157;SHT31;54086;50.126;8.710;2023-04-03T17:41:57;7.21;51.91
67157;SHT31;54086;50.126;8.710;2023-04-03T17:44:22;7.19;52.18
67157;SHT31;54086;50.126;8.710;2023-04-03T17:46:48;7.14;52.34
67157;SHT31;54086;50.126;8.710;2023-04-03T17:49:13;7.04;52.67